Flight Track Log - Related Links

Times and Time Zones

All times are in EDT time to prevent confusion due to time zone crossing. See the SWA208 flight status page for this flight to view local times or setup timezone preferences in your user account.

Time Position Orientation Groundspeed Altitude Reporting Facility
EDT Latitude Longitude Course Direction KTS MPH feet Rate Location/Type
Thu 11:17:32 PM 33.6492 -117.8836 190° South 150 173 1,700  Level Los Angeles Center
Thu 11:18:34 PM 33.6053 -117.8931 190° South 182 209 3,600 1,902 Climbing Los Angeles Center
Thu 11:19:35 PM 33.5544 -117.9094 195° South 189 217 5,600 2,878 Climbing Los Angeles Center
Thu 11:20:37 PM 33.5308 -117.9933 251° West 269 310 9,500 3,581 Climbing Los Angeles Center
Thu 11:21:39 PM 33.5803 -118.0736 306° West 291 335 13,000 3,484 Climbing Los Angeles Center
Thu 11:22:41 PM 33.6314 -118.1703 302° West 332 382 16,700 3,073 Climbing Los Angeles Center
Thu 11:23:42 PM 33.6881 -118.2703 304° West 355 409 19,300 2,585 Climbing Los Angeles Center
Thu 11:24:44 PM 33.7528 -118.3886 303° West 398 458 22,000 2,710 Climbing Los Angeles Center
Thu 11:25:46 PM 33.8189 -118.5067 304° West 409 471 24,900 2,371 Climbing Los Angeles Center
Thu 11:26:48 PM 33.8833 -118.6239 304° West 418 481 26,900 2,098 Climbing Los Angeles Center
Thu 11:27:49 PM 33.9506 -118.7444 304° West 432 497 29,200 2,390 Climbing Los Angeles Center
Thu 11:28:51 PM 34.0294 -118.8508 312° West 427 491 31,800 2,468 Climbing Los Angeles Center
Thu 11:29:53 PM 34.1072 -118.9528 313° West 417 480 34,300 2,613 Climbing Los Angeles Center
Thu 11:30:55 PM 34.1997 -119.0667 314° West 397 457 37,200 1,790 Climbing Los Angeles Center
Thu 11:31:57 PM 34.2725 -119.1581 314° West 382 440 38,000 390 Climbing Los Angeles Center
Thu 11:32:58 PM 34.3469 -119.2517 314° West 386 444 38,000  Level Los Angeles Center
Thu 11:34:00 PM 34.4197 -119.3453 313° West 383 441 38,000  Level Los Angeles Center
Thu 11:35:02 PM 34.4933 -119.4381 314° West 382 440 38,000  Level Los Angeles Center
Thu 11:36:04 PM 34.5661 -119.5311 314° West 382 440 38,000  Level Los Angeles Center
Thu 11:37:05 PM 34.6453 -119.6292 314° West 384 442 38,000  Level Los Angeles Center
Thu 11:38:07 PM 34.7186 -119.7244 313° West 386 444 38,000  Level Los Angeles Center
Thu 11:39:09 PM 34.7933 -119.8175 314° West 386 444 38,000  Level Los Angeles Center
Thu 11:40:11 PM 34.8836 -119.9325 314° West 391 450 38,000  Level Los Angeles Center
Thu 11:41:24 PM 34.9581 -120.0286 313° West 391 450 38,000  Level Los Angeles Center
Thu 11:42:26 PM 35.0450 -120.1403 314° West 396 456 38,000  Level Los Angeles Center
Thu 11:43:28 PM 35.1211 -120.2383 314° West 399 459 38,000  Level Los Angeles Center
Thu 11:44:30 PM 35.1972 -120.3369 313° West 401 461 38,000  Level Los Angeles Center
Thu 11:45:31 PM 35.2897 -120.4581 313° West 402 463 38,000  Level Los Angeles Center
Thu 11:46:33 PM 35.3631 -120.5553 313° West 401 461 38,000  Level Los Angeles Center
Thu 11:47:35 PM 35.4458 -120.6469 318° Northwest 405 466 38,000  Level Los Angeles Center
Thu 11:48:36 PM 35.5322 -120.7325 321° Northwest 402 463 38,000  Level Los Angeles Center
Thu 11:49:38 PM 35.6183 -120.8183 321° Northwest 401 461 38,000  Level Los Angeles Center
Thu 11:50:40 PM 35.7203 -120.9194 321° Northwest 400 460 38,000  Level Los Angeles Center
Thu 11:51:43 PM 35.8047 -121.0050 321° Northwest 397 457 38,000 -387 Level Oakland Center
Thu 11:52:44 PM 35.8900 -121.0903 321° Northwest 394 453 37,200 -885 Descending Oakland Center
Thu 11:53:45 PM 35.9764 -121.1767 321° Northwest 398 458 36,200 -984 Descending Oakland Center
Thu 11:54:46 PM 36.0608 -121.2642 320° Northwest 397 457 35,200 -984 Descending Oakland Center
Thu 11:55:47 PM 36.1489 -121.3531 321° Northwest 404 465 34,200 -1,672 Descending Oakland Center
Thu 11:56:48 PM 36.2333 -121.4411 320° Northwest 399 459 31,800 -2,262 Descending Oakland Center
Thu 11:57:49 PM 36.3172 -121.5253 321° Northwest 387 445 29,600 -2,164 Descending Oakland Center
Thu 11:58:50 PM 36.3947 -121.6072 320° Northwest 366 421 27,400 -2,115 Descending Oakland Center
Thu 11:59:51 PM 36.4736 -121.6842 322° Northwest 359 413 25,300 -2,325 Descending Oakland Center
Fri 12:00:10 AM 36.5167 -121.7167 329° Northwest 356 410 24,300 -1,975 Descending Northern Cal TRACON
Fri 12:01:10 AM 36.5833 -121.8000 315° West 342 394 22,700 -1,700 Descending Northern Cal TRACON
Fri 12:02:10 AM 36.6500 -121.8667 321° Northwest 340 391 20,900 -1,850 Descending Northern Cal TRACON
Fri 12:03:10 AM 36.7333 -121.9500 321° Northwest 330 380 19,000 -1,789 Descending Northern Cal TRACON
Fri 12:04:04 AM 36.8000 -121.9833 338° Northwest 316 364 17,500 -1,900 Descending Northern Cal TRACON
Fri 12:05:10 AM 36.9000 -122.0000 352° North 310 357 15,200 -1,805 Descending Northern Cal TRACON
Fri 12:05:57 AM 36.9456 -122.0161 344° North 308 354 14,100 -1,833 Descending Oakland Center
Fri 12:06:58 AM 37.0422 -122.0411 348° North 295 339 11,900 -1,869 Descending Oakland Center
Fri 12:07:59 AM 37.1253 -122.0631 348° North 304 350 10,300 -934 Descending Oakland Center
Fri 12:09:00 AM 37.1944 -122.0983 338° Northwest 279 321 10,000 -443 Descending Oakland Center
Fri 12:10:01 AM 37.2528 -122.1514 324° Northwest 261 300 9,400 -787 Descending Oakland Center
Fri 12:11:02 AM 37.3069 -122.2025 323° Northwest 245 282 8,400 -984 Descending Oakland Center
Fri 12:12:03 AM 37.3606 -122.2503 325° Northwest 237 273 7,400 -984 Descending Oakland Center
Fri 12:13:04 AM 37.4028 -122.2239 26° Northeast 231 266 6,400 -984 Descending Oakland Center
Fri 12:14:05 AM 37.4053 -122.1436 88° East 233 268 5,400 -984 Descending Oakland Center
Fri 12:15:06 AM 37.4592 -122.1192 20° North 214 246 4,400 -738 Descending Oakland Center
Fri 12:16:07 AM 37.5150 -122.1378 345° North 219 252 3,900 -836 Descending Oakland Center
Fri 12:17:08 AM 37.5436 -122.2008 300° West 212 244 2,700 -984 Descending Oakland Center
Fri 12:18:09 AM 37.5653 -122.2522 298° West 190 219 1,900 -885 Descending Oakland Center
Fri 12:19:10 AM 37.5897 -122.3097 298° West 169 194 900 -787 Descending Oakland Center
Fri 12:20:11 AM 37.6042 -122.3456 297° West 138 159 300 -590 Descending Oakland Center

Login

Don't have an account? Register now (free) for customized features, flight alerts, and more!